Time;durP1;ratioP1;P1;durP2;ratioP2;P2;SDS_P1;SDS_P2;PMS_P1;PMS_P2;Temp;Humidity;BMP_temperature;BMP_pressure;BME280_temperature;BME280_humidity;BME280_pressure;Samples;Min_cycle;Max_cycle;Signal;HPM_P1;HPM_P2
2021/04/25 00:05:51;;;;;;;5.07;1.83;;;5.80;99.90;;;;;;5989806;23;20263;-80
2021/04/25 00:08:31;;;;;;;4.35;2.20;;;5.90;99.90;;;;;;6010091;23;20184;-79
2021/04/25 00:12:25;;;;;;;6.40;2.47;;;5.90;99.90;;;;;;5987897;23;20160;-80
2021/04/25 00:14:36;;;;;;;6.35;2.60;;;5.70;99.90;;;;;;5969008;23;20240;-80
2021/04/25 00:21:21;;;;;;;5.40;2.05;;;5.60;99.90;;;;;;6048399;23;20154;-78
2021/04/25 00:24:27;;;;;;;5.40;2.67;;;5.50;99.90;;;;;;6190790;23;20439;-79
2021/04/25 00:30:46;;;;;;;3.97;3.17;;;5.60;99.90;;;;;;6169878;23;20709;-79
2021/04/25 00:34:03;;;;;;;;;;;;;;;;;;;;;
2021/04/25 00:37:32;;;;;;;6.22;2.50;;;5.50;99.90;;;;;;6215460;23;20661;-80
2021/04/25 00:40:00;;;;;;;4.45;2.30;;;5.40;99.90;;;;;;6095136;23;20183;-80
2021/04/25 00:43:34;;;;;;;6.10;2.92;;;5.40;99.90;;;;;;6216242;23;20157;-80
2021/04/25 00:53:42;;;;;;;3.85;2.63;;;5.10;99.90;;;;;;5985180;23;20226;-79
2021/04/25 01:42:10;;;;;;;17.33;4.30;;;4.20;99.90;;;;;;6153749;23;20234;-79
2021/04/25 01:45:43;;;;;;;;;;;;;;;;;;;;;
2021/04/25 02:17:44;;;;;;;;;;;;;;;;;;;;;
2021/04/25 02:31:40;;;;;;;;;;;;;;;;;;;;;
2021/04/25 02:51:16;;;;;;;;;;;;;;;;;;;;;
2021/04/25 02:58:08;;;;;;;;;;;;;;;;;;;;;
2021/04/25 03:34:16;;;;;;;;;;;;;;;;;;;;;
2021/04/25 03:40:18;;;;;;;15.75;5.47;;;2.70;99.90;;;;;;5925350;24;20168;-79
2021/04/25 04:28:27;;;;;;;;;;;;;;;;;;;;;
2021/04/25 07:35:01;;;;;;;;;;;;;;;;;;;;;
2021/04/25 07:57:43;;;;;;;;;;;;;;;;;;;;;
2021/04/25 08:07:55;;;;;;;;;;;;;;;;;;;;;
2021/04/25 08:18:14;;;;;;;7.20;5.10;;;7.40;99.90;;;;;;5981317;24;20548;-79
2021/04/25 08:21:21;;;;;;;;;;;;;;;;;;;;;
2021/04/25 08:27:56;;;;;;;;;;;;;;;;;;;;;
2021/04/25 08:30:34;;;;;;;6.30;4.43;;;6.90;99.90;;;;;;5980652;24;20266;-78
2021/04/25 08:33:49;;;;;;;9.60;4.47;;;7.20;99.90;;;;;;5925107;24;20582;-78
2021/04/25 08:36:59;;;;;;;;;;;;;;;;;;;;;
2021/04/25 09:16:47;;;;;;;6.90;3.67;;;9.10;99.90;;;;;;6249462;22;20409;-79
2021/04/25 09:19:13;;;;;;;6.80;3.80;;;9.90;99.90;;;;;;6246259;23;20665;-80
2021/04/25 09:22:01;;;;;;;7.30;5.13;;;10.10;99.90;;;;;;6246012;23;20384;-80
2021/04/25 09:24:30;;;;;;;6.43;4.47;;;10.00;99.90;;;;;;6218909;23;20390;-80
2021/04/25 09:26:57;;;;;;;7.80;4.00;;;10.00;99.90;;;;;;6246011;22;20366;-81
2021/04/25 09:29:26;;;;;;;7.03;3.53;;;10.70;99.90;;;;;;6245940;23;20343;-81
2021/04/25 09:31:53;;;;;;;8.60;4.70;;;11.00;99.90;;;;;;6219298;23;20742;-81
2021/04/25 09:34:26;;;;;;;8.57;4.03;;;11.10;99.90;;;;;;6219458;23;20395;-83
2021/04/25 09:36:54;;;;;;;6.80;4.03;;;10.20;99.90;;;;;;6244298;23;20399;-80
2021/04/25 09:39:20;;;;;;;5.20;4.20;;;10.60;99.90;;;;;;6195625;23;20322;-82
2021/04/25 09:41:47;;;;;;;5.60;4.33;;;10.70;99.90;;;;;;6246176;23;20374;-82
2021/04/25 09:44:48;;;;;;;5.20;4.00;;;11.50;99.90;;;;;;6245747;23;20212;-83
2021/04/25 09:47:14;;;;;;;4.97;4.10;;;11.40;99.90;;;;;;6183380;23;20409;-82
2021/04/25 09:49:52;;;;;;;5.77;4.53;;;12.10;99.90;;;;;;6233273;23;20741;-81
2021/04/25 09:52:26;;;;;;;6.97;4.50;;;12.30;99.90;;;;;;6246115;23;20200;-82
2021/04/25 09:55:19;;;;;;;6.70;4.83;;;12.10;99.90;;;;;;6245794;23;20379;-81
2021/04/25 09:57:47;;;;;;;6.33;4.57;;;10.90;99.90;;;;;;6244503;23;20969;-82
2021/04/25 10:00:14;;;;;;;6.30;4.67;;;11.40;99.90;;;;;;6233471;22;20431;-82
2021/04/25 10:03:12;;;;;;;5.50;4.93;;;11.30;99.90;;;;;;6219260;23;20380;-82
2021/04/25 10:05:55;;;;;;;4.33;3.90;;;12.00;99.90;;;;;;6245966;22;20405;-84
2021/04/25 10:08:29;;;;;;;6.40;4.17;;;11.20;99.90;;;;;;6219250;23;20386;-82
2021/04/25 10:10:55;;;;;;;11.03;4.63;;;11.10;99.90;;;;;;6246256;23;20382;-81
2021/04/25 10:13:21;;;;;;;6.83;4.83;;;11.20;99.90;;;;;;6246647;23;20368;-82
2021/04/25 10:15:46;;;;;;;6.17;4.07;;;11.80;99.90;;;;;;6219010;23;20707;-82
2021/04/25 10:18:13;;;;;;;7.00;4.63;;;10.60;99.90;;;;;;6246049;23;20847;-82
2021/04/25 10:20:39;;;;;;;6.80;4.70;;;11.90;99.90;;;;;;6246118;23;20153;-80
2021/04/25 10:23:06;;;;;;;6.50;4.73;;;11.70;99.90;;;;;;6245973;23;20429;-80
2021/04/25 10:25:35;;;;;;;7.20;4.90;;;12.00;99.90;;;;;;6245902;22;20412;-80
2021/04/25 10:28:05;;;;;;;8.47;5.27;;;12.30;99.90;;;;;;6219353;23;20394;-81
2021/04/25 10:30:36;;;;;;;7.20;6.03;;;12.60;99.90;;;;;;6219023;23;20391;-80
2021/04/25 10:33:03;;;;;;;6.93;5.00;;;12.40;99.90;;;;;;6248584;23;20355;-80
2021/04/25 10:35:32;;;;;;;6.07;4.60;;;12.20;99.90;;;;;;6248132;22;20535;-83
2021/04/25 10:37:59;;;;;;;7.50;5.20;;;13.10;99.90;;;;;;6220988;23;20489;-79
2021/04/25 10:40:32;;;;;;;6.67;4.70;;;13.10;99.90;;;;;;6221191;23;20870;-82
2021/04/25 10:43:10;;;;;;;6.77;5.07;;;13.00;99.90;;;;;;6247444;23;20679;-81
2021/04/25 10:45:59;;;;;;;7.07;5.00;;;13.50;99.90;;;;;;6246795;22;20445;-80
2021/04/25 10:48:32;;;;;;;6.63;4.53;;;13.70;99.90;;;;;;6247330;23;20382;-79
2021/04/25 10:51:06;;;;;;;7.73;4.97;;;13.70;99.90;;;;;;6220922;23;20379;-84
2021/04/25 10:53:35;;;;;;;4.77;4.37;;;14.20;99.90;;;;;;6220504;23;20364;-82
2021/04/25 10:56:13;;;;;;;6.67;4.10;;;13.70;99.90;;;;;;6247385;22;20402;-80
2021/04/25 10:58:46;;;;;;;5.03;3.80;;;13.40;99.90;;;;;;6247708;23;20360;-82
2021/04/25 11:01:40;;;;;;;8.40;3.90;;;13.40;99.90;;;;;;6247191;23;20411;-82
2021/04/25 11:04:06;;;;;;;7.57;3.67;;;13.10;99.50;;;;;;6247597;23;20342;-83
2021/04/25 11:06:32;;;;;;;4.53;3.63;;;13.80;99.90;;;;;;6246912;22;20693;-82
2021/04/25 11:08:58;;;;;;;3.97;3.40;;;14.10;97.40;;;;;;6247429;23;20380;-82
2021/04/25 11:11:38;;;;;;;5.23;3.93;;;14.50;99.60;;;;;;6247416;23;20464;-83
2021/04/25 11:14:06;;;;;;;4.80;4.20;;;14.20;99.90;;;;;;6221092;23;20518;-83
2021/04/25 11:16:33;;;;;;;4.73;3.70;;;14.60;96.80;;;;;;6246694;22;20416;-82
2021/04/25 11:19:10;;;;;;;6.10;3.70;;;14.60;95.30;;;;;;6220240;23;20388;-82
2021/04/25 11:21:43;;;;;;;5.90;4.00;;;14.40;96.00;;;;;;6247391;23;20375;-82
2021/04/25 11:24:08;;;;;;;5.40;3.40;;;14.90;98.00;;;;;;6247171;23;20394;-81
2021/04/25 11:26:38;;;;;;;5.80;3.87;;;15.60;96.50;;;;;;6246689;22;20420;-82
2021/04/25 11:29:09;;;;;;;7.80;4.17;;;13.90;94.00;;;;;;6220345;23;20153;-83
2021/04/25 11:31:49;;;;;;;5.97;3.90;;;13.60;96.40;;;;;;6247111;23;20356;-84
2021/04/25 11:34:27;;;;;;;4.60;4.20;;;13.90;98.70;;;;;;6220371;23;20651;-81
2021/04/25 11:36:56;;;;;;;6.17;4.23;;;14.60;95.80;;;;;;6247086;22;20827;-80
2021/04/25 11:39:45;;;;;;;7.13;4.40;;;14.90;96.30;;;;;;6246840;23;20371;-82
2021/04/25 11:42:32;;;;;;;6.93;5.20;;;14.80;94.10;;;;;;6246741;23;20777;-82
2021/04/25 11:45:01;;;;;;;5.80;4.27;;;14.90;93.20;;;;;;6246479;23;20378;-82
2021/04/25 11:47:30;;;;;;;8.07;3.50;;;14.80;95.50;;;;;;6246709;22;20400;-82
2021/04/25 11:49:58;;;;;;;4.40;3.33;;;16.20;95.20;;;;;;6220041;23;20394;-83
2021/04/25 11:52:31;;;;;;;3.50;3.20;;;16.70;93.10;;;;;;6246743;23;20718;-82
2021/04/25 11:55:03;;;;;;;6.53;3.50;;;16.60;91.70;;;;;;6246483;23;20827;-84
2021/04/25 11:57:31;;;;;;;8.23;4.80;;;15.90;88.30;;;;;;6246872;22;20392;-84
2021/04/25 11:59:57;;;;;;;5.57;4.10;;;15.00;90.10;;;;;;6246501;23;20378;-81
2021/04/25 12:02:31;;;;;;;5.80;3.77;;;15.60;91.60;;;;;;6220145;23;20362;-82
2021/04/25 12:04:59;;;;;;;5.30;3.80;;;16.50;90.40;;;;;;6246423;23;20412;-81
2021/04/25 12:07:34;;;;;;;4.47;3.40;;;16.40;89.10;;;;;;6246528;22;20358;-81
2021/04/25 12:10:00;;;;;;;4.30;3.73;;;16.90;88.60;;;;;;6246794;23;20421;-82
2021/04/25 12:12:27;;;;;;;5.03;4.20;;;16.80;84.80;;;;;;6219643;23;20395;-79
2021/04/25 12:15:05;;;;;;;4.10;3.37;;;17.30;87.40;;;;;;6219694;23;20379;-80
2021/04/25 12:17:33;;;;;;;6.40;3.97;;;18.30;85.40;;;;;;6221370;23;20724;-82
2021/04/25 12:20:00;;;;;;;5.13;3.37;;;18.20;83.00;;;;;;6246829;23;20372;-81
2021/04/25 12:22:27;;;;;;;4.50;2.97;;;18.40;78.60;;;;;;6228720;23;20354;-82
2021/04/25 12:24:58;;;;;;;4.77;3.90;;;18.70;80.60;;;;;;6245971;23;20390;-84
2021/04/25 12:27:24;;;;;;;4.83;3.60;;;18.50;78.00;;;;;;6246487;22;20927;-85
2021/04/25 12:29:50;;;;;;;5.00;3.90;;;18.70;76.90;;;;;;6219628;23;20372;-81
2021/04/25 12:32:22;;;;;;;8.33;3.90;;;19.00;75.00;;;;;;6246453;23;20425;-82
2021/04/25 12:35:02;;;;;;;4.40;3.70;;;18.00;74.00;;;;;;6246195;23;20379;-82
2021/04/25 12:37:54;;;;;;;8.57;4.97;;;18.60;74.40;;;;;;6219435;23;20407;-83
2021/04/25 12:40:32;;;;;;;5.50;3.63;;;19.40;75.00;;;;;;6243296;23;20394;-82
2021/04/25 12:43:15;;;;;;;7.40;3.73;;;19.70;74.70;;;;;;6246690;23;20354;-82
2021/04/25 12:45:43;;;;;;;3.97;3.33;;;19.10;72.40;;;;;;6245766;22;20402;-81
2021/04/25 12:48:30;;;;;;;5.73;3.63;;;18.10;68.80;;;;;;6246274;23;20390;-82
2021/04/25 12:51:16;;;;;;;8.27;4.63;;;17.50;69.50;;;;;;6218582;23;20701;-83
2021/04/25 12:53:50;;;;;;;3.50;2.97;;;17.80;72.10;;;;;;6218970;23;20459;-83
2021/04/25 12:56:45;;;;;;;5.77;3.80;;;17.10;71.30;;;;;;6245901;22;20473;-82
2021/04/25 12:59:18;;;;;;;5.27;3.70;;;18.30;75.30;;;;;;6219250;23;20517;-83
2021/04/25 13:01:56;;;;;;;4.60;4.00;;;19.10;72.50;;;;;;6246098;23;20390;-83
2021/04/25 13:04:40;;;;;;;4.13;3.73;;;19.20;68.80;;;;;;6245781;23;20372;-85
2021/04/25 13:07:41;;;;;;;6.10;4.23;;;19.40;66.80;;;;;;6219421;23;20899;-83
2021/04/25 13:10:14;;;;;;;5.27;3.63;;;19.10;67.00;;;;;;6246329;23;20653;-82
2021/04/25 13:12:57;;;;;;;5.13;4.00;;;19.40;67.30;;;;;;6219097;23;20700;-80
2021/04/25 13:15:37;;;;;;;5.33;3.70;;;19.10;65.60;;;;;;6218866;22;20383;-82
2021/04/25 13:18:14;;;;;;;4.50;3.63;;;18.70;65.30;;;;;;6218738;23;20383;-82
2021/04/25 13:20:58;;;;;;;5.47;4.30;;;19.20;65.50;;;;;;6219692;23;20361;-80
2021/04/25 13:23:31;;;;;;;8.90;3.93;;;19.70;65.70;;;;;;6246492;23;20355;-82
2021/04/25 13:25:59;;;;;;;4.03;3.40;;;19.80;63.60;;;;;;6245668;22;20427;-80
2021/04/25 13:28:30;;;;;;;5.77;4.03;;;19.60;63.90;;;;;;6219887;23;20442;-80
2021/04/25 13:30:59;;;;;;;10.83;4.47;;;19.30;63.00;;;;;;6246434;23;20426;-82
2021/04/25 13:33:30;;;;;;;4.50;4.10;;;19.40;62.50;;;;;;6246003;23;20349;-80
2021/04/25 13:35:57;;;;;;;7.50;3.90;;;19.90;65.40;;;;;;6218693;23;20427;-82
2021/04/25 13:38:24;;;;;;;4.70;3.67;;;19.50;61.90;;;;;;6219895;23;20380;-80
2021/04/25 13:40:53;;;;;;;6.97;4.20;;;19.90;60.40;;;;;;6219353;23;20380;-81
2021/04/25 13:43:19;;;;;;;4.53;3.70;;;19.80;58.70;;;;;;6246040;23;20346;-80
2021/04/25 13:45:45;;;;;;;4.83;4.00;;;19.70;59.50;;;;;;6245371;22;20793;-81
2021/04/25 13:48:12;;;;;;;7.27;4.23;;;19.90;59.10;;;;;;6218843;23;20380;-79
2021/04/25 13:50:40;;;;;;;6.23;3.70;;;20.40;59.30;;;;;;6245988;23;20364;-80
2021/04/25 13:53:06;;;;;;;5.90;4.50;;;20.90;59.40;;;;;;6245854;23;20368;-80
2021/04/25 13:55:33;;;;;;;4.30;3.67;;;19.50;59.10;;;;;;6218882;22;20380;-82
2021/04/25 13:57:59;;;;;;;6.93;4.13;;;19.80;60.10;;;;;;6245850;23;20376;-82
2021/04/25 14:00:27;;;;;;;7.73;3.73;;;20.70;60.00;;;;;;6245856;23;20448;-82
2021/04/25 14:02:53;;;;;;;6.23;4.37;;;20.00;60.00;;;;;;6245909;23;20338;-83
2021/04/25 14:05:22;;;;;;;6.60;4.10;;;20.10;61.80;;;;;;6246002;22;20415;-80
2021/04/25 14:07:49;;;;;;;5.10;4.40;;;19.80;59.30;;;;;;6196570;23;20214;-81
2021/04/25 14:10:17;;;;;;;5.80;4.90;;;19.70;58.20;;;;;;6247815;23;20375;-82
2021/04/25 14:12:43;;;;;;;3.57;3.27;;;19.50;59.60;;;;;;6247791;23;20367;-80
2021/04/25 14:15:11;;;;;;;5.37;3.73;;;20.20;60.70;;;;;;6247435;23;20371;-81
2021/04/25 14:17:37;;;;;;;5.10;3.20;;;20.20;57.50;;;;;;6221400;23;20188;-83
2021/04/25 14:20:08;;;;;;;5.63;3.73;;;20.80;59.00;;;;;;6247736;23;20677;-82
2021/04/25 14:22:33;;;;;;;4.47;4.07;;;20.60;57.40;;;;;;6221316;23;20161;-82
2021/04/25 14:24:59;;;;;;;6.93;4.27;;;20.20;55.70;;;;;;6220513;23;20422;-82
2021/04/25 14:27:26;;;;;;;5.60;3.80;;;19.50;56.70;;;;;;6220877;23;20731;-83
2021/04/25 14:29:52;;;;;;;3.63;3.33;;;19.10;58.40;;;;;;6221196;23;20145;-80
2021/04/25 14:32:18;;;;;;;6.73;3.80;;;19.60;56.70;;;;;;6247508;23;20383;-81
2021/04/25 14:34:43;;;;;;;10.77;4.17;;;20.40;58.90;;;;;;6170980;23;20180;-84
2021/04/25 14:37:09;;;;;;;7.50;3.50;;;19.60;57.50;;;;;;6221016;23;20169;-81
2021/04/25 14:39:36;;;;;;;5.37;4.10;;;19.80;59.90;;;;;;6221238;23;20157;-82
2021/04/25 14:42:04;;;;;;;4.33;3.60;;;19.90;58.70;;;;;;6247437;23;20156;-83
2021/04/25 14:44:30;;;;;;;3.93;3.50;;;20.40;58.90;;;;;;6246980;23;20354;-84
2021/04/25 14:46:56;;;;;;;5.70;4.40;;;21.20;58.00;;;;;;6247774;22;20394;-82
2021/04/25 14:49:23;;;;;;;6.00;4.30;;;20.40;56.60;;;;;;6220943;23;20388;-80
2021/04/25 14:51:48;;;;;;;5.47;3.23;;;20.10;56.40;;;;;;6247452;23;20455;-83
2021/04/25 14:54:14;;;;;;;7.20;4.10;;;20.40;58.10;;;;;;6247317;23;20392;-80
2021/04/25 14:56:40;;;;;;;5.43;3.27;;;19.30;57.20;;;;;;6220396;23;20176;-81
2021/04/25 14:59:06;;;;;;;4.93;4.03;;;20.10;58.20;;;;;;6220972;23;20153;-81
2021/04/25 15:01:33;;;;;;;4.53;3.37;;;20.00;55.50;;;;;;6246886;23;20880;-81
2021/04/25 15:03:59;;;;;;;5.97;3.87;;;19.80;56.00;;;;;;6247458;23;20342;-82
2021/04/25 15:06:31;;;;;;;4.83;3.23;;;20.10;55.80;;;;;;6246619;22;20457;-80
2021/04/25 15:08:58;;;;;;;4.60;3.37;;;20.50;55.90;;;;;;6247529;23;20360;-81
2021/04/25 15:11:24;;;;;;;6.20;3.30;;;20.50;55.60;;;;;;6247337;23;20728;-81
2021/04/25 15:13:50;;;;;;;5.63;3.80;;;20.20;54.90;;;;;;6220544;23;20505;-79
2021/04/25 15:16:16;;;;;;;6.80;3.67;;;20.20;55.50;;;;;;6247041;22;20230;-82
2021/04/25 15:18:42;;;;;;;6.20;3.80;;;20.50;54.40;;;;;;6247027;23;20824;-82
2021/04/25 15:21:10;;;;;;;6.00;3.97;;;20.10;56.40;;;;;;6220216;23;20161;-82
2021/04/25 15:23:37;;;;;;;7.10;3.60;;;20.20;56.50;;;;;;6220807;23;20236;-83
2021/04/25 15:26:05;;;;;;;7.77;4.60;;;20.20;55.20;;;;;;6219936;23;20431;-79
2021/04/25 15:28:32;;;;;;;7.40;3.90;;;20.10;55.70;;;;;;6220528;23;20837;-82
2021/04/25 15:30:58;;;;;;;11.73;4.87;;;20.30;55.20;;;;;;6247174;23;20419;-79
2021/04/25 15:33:23;;;;;;;8.10;4.00;;;18.30;54.60;;;;;;6246936;23;20372;-75
2021/04/25 15:35:49;;;;;;;6.20;3.73;;;17.80;56.80;;;;;;6246188;22;20492;-75
2021/04/25 15:38:16;;;;;;;8.10;4.10;;;18.90;57.60;;;;;;6247414;23;20145;-75
2021/04/25 15:40:43;;;;;;;6.20;3.73;;;19.00;55.70;;;;;;6247277;23;20372;-75
2021/04/25 15:43:09;;;;;;;5.93;4.10;;;18.50;56.70;;;;;;6247122;23;20361;-75
2021/04/25 15:45:41;;;;;;;5.23;3.43;;;18.50;57.60;;;;;;6246577;22;20407;-75
2021/04/25 15:48:10;;;;;;;4.87;3.90;;;18.40;57.30;;;;;;6247062;23;20667;-75
2021/04/25 15:50:37;;;;;;;4.67;4.00;;;18.40;57.00;;;;;;6220837;23;20393;-75
2021/04/25 15:53:04;;;;;;;7.00;3.63;;;18.70;56.60;;;;;;6247105;23;20358;-75
2021/04/25 15:55:35;;;;;;;6.93;3.93;;;18.60;57.00;;;;;;6220069;22;20463;-75
2021/04/25 15:58:05;;;;;;;4.40;3.50;;;18.70;56.80;;;;;;6220222;23;20395;-75
2021/04/25 16:00:31;;;;;;;4.03;3.60;;;19.00;57.00;;;;;;6246862;23;20426;-75
2021/04/25 16:02:57;;;;;;;6.93;3.63;;;19.10;58.20;;;;;;6220313;23;20391;-75
2021/04/25 16:05:24;;;;;;;4.90;3.90;;;18.30;57.20;;;;;;6245738;22;20397;-75
2021/04/25 16:07:50;;;;;;;5.50;3.40;;;18.10;57.50;;;;;;6219948;23;20187;-75
2021/04/25 16:10:18;;;;;;;4.80;3.80;;;18.10;56.10;;;;;;6246655;23;20437;-75
2021/04/25 16:12:44;;;;;;;4.83;3.10;;;17.80;55.90;;;;;;6246572;23;20425;-75
2021/04/25 16:15:12;;;;;;;6.77;3.30;;;17.90;55.80;;;;;;6246145;23;20455;-75
2021/04/25 16:17:38;;;;;;;4.80;3.33;;;17.50;55.40;;;;;;6194954;23;20196;-74
2021/04/25 16:20:07;;;;;;;7.40;2.93;;;17.60;55.30;;;;;;6246614;23;20463;-75
2021/04/25 16:22:33;;;;;;;11.80;3.00;;;17.70;56.10;;;;;;6220834;23;20448;-75
2021/04/25 16:24:59;;;;;;;7.13;3.53;;;17.20;56.70;;;;;;6245871;23;20839;-76
2021/04/25 16:27:24;;;;;;;7.90;3.17;;;16.90;57.30;;;;;;6246603;22;20441;-75
2021/04/25 16:29:50;;;;;;;6.07;3.00;;;17.00;58.80;;;;;;6246141;23;20153;-76
2021/04/25 16:32:17;;;;;;;5.73;3.90;;;17.40;56.20;;;;;;6246592;23;20228;-75
2021/04/25 16:34:42;;;;;;;7.27;3.90;;;17.20;55.70;;;;;;6245294;23;20228;-75
2021/04/25 16:37:19;;;;;;;3.70;2.83;;;17.00;56.80;;;;;;6246249;22;20473;-75
2021/04/25 16:39:46;;;;;;;3.47;2.80;;;16.60;56.50;;;;;;6246598;23;20212;-74
2021/04/25 16:42:12;;;;;;;4.10;2.83;;;16.80;57.40;;;;;;6246328;23;20372;-73
2021/04/25 16:44:39;;;;;;;6.90;2.90;;;17.30;58.60;;;;;;6246101;23;20698;-73
2021/04/25 16:47:05;;;;;;;5.33;3.23;;;17.70;57.20;;;;;;6246356;22;20395;-73
2021/04/25 16:49:31;;;;;;;7.37;3.50;;;17.00;56.10;;;;;;6246399;23;20457;-75
2021/04/25 16:52:00;;;;;;;5.80;3.30;;;17.10;56.60;;;;;;6246455;23;20592;-74
2021/04/25 16:54:28;;;;;;;4.80;3.40;;;16.80;56.40;;;;;;6246357;23;20145;-73
2021/04/25 16:56:54;;;;;;;6.07;3.30;;;16.40;56.50;;;;;;6245925;22;20444;-75
2021/04/25 16:59:22;;;;;;;6.30;2.90;;;17.20;57.50;;;;;;6219316;23;20807;-75
2021/04/25 17:01:48;;;;;;;6.87;2.73;;;16.90;57.40;;;;;;6219954;23;20164;-74
2021/04/25 17:04:15;;;;;;;4.03;3.10;;;17.10;57.60;;;;;;6245919;23;20383;-75
2021/04/25 17:06:41;;;;;;;8.40;3.10;;;17.00;57.60;;;;;;6218628;23;20666;-74
2021/04/25 17:09:07;;;;;;;7.50;3.30;;;16.60;57.40;;;;;;6246189;23;20477;-74
2021/04/25 17:11:34;;;;;;;8.73;3.50;;;16.60;56.40;;;;;;6245696;23;20153;-75
2021/04/25 17:14:01;;;;;;;5.70;2.93;;;16.30;56.90;;;;;;6245077;23;20442;-76
2021/04/25 17:16:30;;;;;;;5.23;2.83;;;16.30;56.70;;;;;;6245638;22;20698;-79
2021/04/25 17:18:59;;;;;;;5.93;2.83;;;16.40;56.90;;;;;;6245978;23;20671;-79
2021/04/25 17:21:29;;;;;;;5.23;2.80;;;16.40;58.00;;;;;;6194955;23;20486;-79
2021/04/25 17:23:54;;;;;;;7.10;3.80;;;16.70;57.90;;;;;;6245999;23;20339;-79
2021/04/25 17:26:20;;;;;;;4.80;2.87;;;16.30;57.10;;;;;;6193509;23;20442;-79
2021/04/25 17:28:46;;;;;;;3.87;2.53;;;16.50;57.20;;;;;;6246421;23;20497;-79
2021/04/25 17:31:12;;;;;;;6.70;3.40;;;16.40;57.60;;;;;;6245886;23;20141;-79
2021/04/25 17:33:39;;;;;;;8.93;2.63;;;16.50;58.10;;;;;;6245618;23;20372;-78
2021/04/25 17:36:05;;;;;;;8.43;3.27;;;16.60;59.10;;;;;;6245522;22;20940;-78
2021/04/25 17:38:31;;;;;;;4.97;3.37;;;16.20;59.80;;;;;;6219142;23;20393;-78
2021/04/25 17:40:57;;;;;;;8.87;3.00;;;16.00;58.70;;;;;;6221357;23;20157;-79
2021/04/25 17:43:22;;;;;;;10.93;2.73;;;15.90;59.50;;;;;;6197163;23;20167;-79
2021/04/25 17:45:49;;;;;;;7.00;3.20;;;16.10;58.90;;;;;;6196836;23;20188;-79
2021/04/25 17:48:16;;;;;;;6.20;2.90;;;15.80;59.30;;;;;;6249330;23;20218;-79
2021/04/25 17:50:43;;;;;;;4.57;2.80;;;15.70;59.20;;;;;;6249165;23;20667;-78
2021/04/25 17:53:09;;;;;;;10.63;3.20;;;15.30;60.70;;;;;;6249290;23;20628;-79
2021/04/25 17:55:35;;;;;;;8.07;2.93;;;14.70;61.40;;;;;;6222039;22;20371;-78
2021/04/25 17:58:00;;;;;;;4.70;2.93;;;14.50;61.60;;;;;;6248868;23;20474;-79
2021/04/25 18:00:28;;;;;;;3.97;2.63;;;14.40;62.50;;;;;;6249145;23;20156;-78
2021/04/25 18:02:55;;;;;;;5.67;3.33;;;14.10;63.60;;;;;;6222932;23;20159;-79
2021/04/25 18:05:34;;;;;;;3.93;2.70;;;14.00;65.50;;;;;;5170027;27;20539;-77
2021/04/25 18:08:00;;;;;;;6.30;2.73;;;13.70;67.10;;;;;;5133737;27;20427;-77
2021/04/25 18:10:28;;;;;;;6.23;2.33;;;13.30;67.70;;;;;;5152114;27;20514;-77
2021/04/25 18:12:55;;;;;;;10.73;4.10;;;13.60;67.40;;;;;;5117190;27;20170;-77
2021/04/25 18:15:21;;;;;;;3.30;2.30;;;13.10;67.80;;;;;;5151670;27;20399;-77
2021/04/25 18:17:49;;;;;;;13.67;2.90;;;12.90;69.70;;;;;;5151993;27;20403;-77
2021/04/25 18:20:16;;;;;;;5.23;2.73;;;12.80;70.60;;;;;;5133344;27;20807;-77
2021/04/25 18:22:41;;;;;;;7.10;3.27;;;12.70;71.20;;;;;;5151962;27;20402;-78
2021/04/25 18:25:09;;;;;;;11.53;3.60;;;12.60;72.50;;;;;;5151472;27;20455;-78
2021/04/25 18:27:35;;;;;;;4.47;3.40;;;12.40;73.80;;;;;;5152053;27;20209;-78
2021/04/25 18:30:01;;;;;;;5.30;2.97;;;12.30;75.50;;;;;;5151682;27;20371;-78
2021/04/25 18:32:27;;;;;;;7.30;2.83;;;12.20;75.20;;;;;;5151807;27;20865;-78
2021/04/25 18:34:53;;;;;;;4.20;2.57;;;11.90;77.30;;;;;;5151489;27;20178;-78
2021/04/25 18:37:20;;;;;;;9.60;3.90;;;12.00;77.60;;;;;;5133208;27;20523;-79
2021/04/25 18:39:46;;;;;;;3.90;2.57;;;11.90;78.40;;;;;;5133183;27;20773;-78
2021/04/25 18:42:14;;;;;;;6.00;3.00;;;11.80;78.40;;;;;;5151480;27;20548;-77
2021/04/25 18:44:42;;;;;;;7.33;2.90;;;11.60;80.40;;;;;;5132683;27;20511;-79
2021/04/25 18:47:07;;;;;;;8.63;3.47;;;11.40;80.60;;;;;;5115688;27;20443;-78
2021/04/25 18:49:33;;;;;;;6.13;3.33;;;11.30;82.30;;;;;;5151375;27;20403;-78
2021/04/25 18:52:01;;;;;;;5.13;2.73;;;11.20;83.40;;;;;;5132693;27;20673;-79
2021/04/25 18:54:28;;;;;;;7.97;4.30;;;11.20;84.70;;;;;;5151210;27;20420;-78
2021/04/25 18:56:55;;;;;;;7.05;3.45;;;11.00;84.70;;;;;;5151045;27;20506;-78
2021/04/25 18:59:23;;;;;;;10.07;3.50;;;11.00;85.50;;;;;;5115730;27;20555;-78
2021/04/25 19:01:49;;;;;;;7.73;3.37;;;10.90;86.70;;;;;;5151324;27;20450;-78
2021/04/25 19:04:15;;;;;;;5.30;3.20;;;10.60;88.80;;;;;;5132387;27;20463;-78
2021/04/25 19:06:40;;;;;;;6.17;2.87;;;10.60;89.00;;;;;;5150335;27;20220;-78
2021/04/25 19:09:06;;;;;;;7.00;3.00;;;10.50;90.00;;;;;;5151131;27;20173;-78
2021/04/25 19:11:34;;;;;;;9.23;3.13;;;10.40;90.80;;;;;;5151077;27;20199;-78
2021/04/25 19:13:59;;;;;;;6.85;3.10;;;10.30;91.50;;;;;;5150999;27;20469;-77
2021/04/25 19:16:25;;;;;;;5.07;2.93;;;10.30;91.80;;;;;;5139445;27;20612;-78
2021/04/25 19:18:51;;;;;;;12.37;4.00;;;10.00;92.50;;;;;;5137023;27;20400;-78
2021/04/25 19:21:17;;;;;;;6.80;3.80;;;9.80;94.10;;;;;;5137155;27;20186;-78
2021/04/25 19:23:43;;;;;;;9.98;3.50;;;9.80;94.80;;;;;;5118514;27;20560;-78
2021/04/25 19:26:11;;;;;;;7.60;3.23;;;9.80;94.90;;;;;;5136661;27;20273;-78
2021/04/25 19:28:42;;;;;;;6.85;2.83;;;9.60;95.60;;;;;;5118545;27;20185;-77
2021/04/25 19:31:12;;;;;;;6.43;3.00;;;9.60;96.30;;;;;;5137064;27;20246;-77
2021/04/25 19:33:39;;;;;;;9.88;4.40;;;9.60;96.40;;;;;;5119344;27;20258;-78
2021/04/25 19:36:06;;;;;;;6.57;3.47;;;9.30;97.30;;;;;;5136349;27;20270;-78
2021/04/25 19:38:32;;;;;;;8.13;3.65;;;9.20;98.80;;;;;;5136614;27;20178;-78
2021/04/25 19:40:59;;;;;;;8.83;3.53;;;9.30;99.10;;;;;;5118773;27;20175;-78
2021/04/25 19:43:24;;;;;;;3.95;3.00;;;9.10;98.80;;;;;;5123875;27;20177;-77
2021/04/25 19:45:50;;;;;;;7.03;3.03;;;9.10;99.50;;;;;;5136286;27;20190;-78
2021/04/25 19:48:19;;;;;;;11.75;3.20;;;9.10;99.90;;;;;;5101936;28;20203;-78
2021/04/25 19:50:48;;;;;;;10.57;3.17;;;9.00;99.90;;;;;;5120710;27;20167;-77
2021/04/25 19:53:14;;;;;;;4.22;3.20;;;8.90;99.90;;;;;;5114352;28;20175;-77
2021/04/25 19:55:41;;;;;;;7.70;3.53;;;8.80;99.90;;;;;;5106159;27;20593;-78
2021/04/25 19:58:10;;;;;;;7.75;3.35;;;8.80;99.90;;;;;;5117910;27;20417;-78
2021/04/25 20:00:39;;;;;;;6.93;3.13;;;8.70;99.90;;;;;;5136184;27;20174;-78
2021/04/25 20:03:07;;;;;;;7.47;2.97;;;8.60;99.90;;;;;;5136110;27;20202;-77
2021/04/25 20:05:33;;;;;;;5.32;3.03;;;8.70;99.90;;;;;;5117636;27;20202;-78
2021/04/25 20:07:58;;;;;;;5.90;3.33;;;8.60;99.90;;;;;;5100152;27;20227;-78
2021/04/25 20:10:28;;;;;;;4.80;2.47;;;8.50;99.90;;;;;;5117637;27;20421;-77
2021/04/25 20:12:54;;;;;;;6.50;3.92;;;8.40;99.90;;;;;;5135948;27;20625;-77
2021/04/25 20:15:24;;;;;;;5.67;3.13;;;8.20;99.90;;;;;;5135582;27;20212;-78
2021/04/25 20:17:51;;;;;;;8.35;3.10;;;8.20;99.90;;;;;;5117867;27;20424;-78
2021/04/25 20:20:19;;;;;;;5.30;3.53;;;8.20;99.90;;;;;;5100642;27;20183;-78
2021/04/25 20:22:47;;;;;;;2.78;2.40;;;8.00;99.90;;;;;;5135741;27;20206;-78
2021/04/25 20:25:16;;;;;;;6.63;3.70;;;8.00;99.90;;;;;;5116945;27;20198;-77
2021/04/25 20:27:43;;;;;;;6.80;2.95;;;8.00;99.90;;;;;;5124823;27;20171;-77
2021/04/25 20:30:11;;;;;;;8.70;3.10;;;8.00;99.90;;;;;;5097103;28;20177;-77
2021/04/25 20:32:37;;;;;;;8.48;3.47;;;7.90;99.90;;;;;;5115333;28;20167;-78
2021/04/25 20:35:05;;;;;;;8.97;3.00;;;7.70;99.90;;;;;;5114722;28;20175;-77
2021/04/25 20:37:30;;;;;;;9.38;3.45;;;7.70;99.90;;;;;;5096795;28;20682;-77
2021/04/25 20:39:56;;;;;;;10.40;3.60;;;7.70;99.90;;;;;;5115255;28;20171;-78
2021/04/25 20:42:22;;;;;;;11.20;3.63;;;7.70;99.90;;;;;;5079989;28;20191;-77
2021/04/25 20:44:49;;;;;;;5.07;2.60;;;7.60;99.90;;;;;;5114534;28;20210;-78
2021/04/25 20:47:15;;;;;;;7.95;3.60;;;7.60;99.90;;;;;;5114590;28;20251;-78
2021/04/25 20:49:41;;;;;;;5.65;3.15;;;7.50;99.90;;;;;;5096444;28;20220;-78
2021/04/25 20:52:07;;;;;;;8.70;3.50;;;7.50;99.90;;;;;;5114733;28;20171;-79
2021/04/25 20:54:33;;;;;;;6.50;3.30;;;7.40;99.90;;;;;;5114561;28;20420;-78
2021/04/25 20:56:59;;;;;;;7.30;4.15;;;7.40;99.90;;;;;;5114502;28;20432;-79
2021/04/25 20:59:25;;;;;;;10.00;3.47;;;7.30;99.90;;;;;;5114619;28;20179;-78
2021/04/25 21:01:50;;;;;;;15.57;4.30;;;7.20;99.90;;;;;;5079520;28;20413;-77
2021/04/25 21:04:16;;;;;;;6.63;3.53;;;7.00;99.90;;;;;;5114467;28;20213;-77
2021/04/25 21:06:42;;;;;;;10.10;3.30;;;6.90;99.90;;;;;;5114133;28;20233;-77
2021/04/25 21:09:09;;;;;;;6.23;3.30;;;6.80;99.90;;;;;;5114268;28;20167;-78
2021/04/25 21:11:34;;;;;;;8.80;3.70;;;6.60;99.90;;;;;;5114421;28;20564;-77
2021/04/25 21:14:02;;;;;;;4.83;3.30;;;6.50;99.90;;;;;;5114433;28;20164;-77
2021/04/25 21:16:27;;;;;;;10.38;3.92;;;6.60;99.90;;;;;;5113872;28;20187;-78